Time;durP1;ratioP1;P1;durP2;ratioP2;P2;SDS_P1;SDS_P2;PMS_P1;PMS_P2;Temp;Humidity;BMP_temperature;BMP_pressure;BME280_temperature;BME280_humidity;BME280_pressure;Samples;Min_cycle;Max_cycle;Signal;HPM_P1;HPM_P2
2021/12/23 00:01:15;;;;;;;20.80;12.70;;;;;;;-0.64;74.27;95724.28;4394856;32;20192;-61
2021/12/23 00:03:43;;;;;;;14.65;12.15;;;;;;;-0.62;74.32;95715.22;4404038;32;20199;-61
2021/12/23 00:06:11;;;;;;;19.40;12.55;;;;;;;-0.55;74.03;95709.94;4406568;32;20199;-62
2021/12/23 00:08:36;;;;;;;16.52;11.95;;;;;;;-0.74;74.26;95717.72;4413705;32;20209;-61
2021/12/23 00:11:16;;;;;;;15.07;11.23;;;;;;;-0.96;75.11;95713.09;4412071;32;20189;-62
2021/12/23 00:13:50;;;;;;;15.02;12.60;;;;;;;-1.00;75.89;95704.91;4402401;32;20287;-61
2021/12/23 00:16:40;;;;;;;15.80;12.52;;;;;;;-0.71;74.40;95700.88;4393477;32;20251;-61
2021/12/23 00:24:43;;;;;;;13.18;11.77;;;;;;;-0.80;73.97;95705.53;4410715;32;20229;-61
2021/12/23 00:27:10;;;;;;;14.85;12.13;;;;;;;-1.23;75.19;95702.84;4408918;32;20188;-61
2021/12/23 00:29:41;;;;;;;14.30;10.25;;;;;;;-1.15;75.62;95701.81;4406229;32;20271;-61
2021/12/23 00:32:14;;;;;;;15.93;11.95;;;;;;;-0.91;74.60;95695.81;4391218;32;20248;-61
2021/12/23 00:34:40;;;;;;;19.00;11.68;;;;;;;-1.13;74.71;95699.78;4402261;32;20199;-61
2021/12/23 00:37:10;;;;;;;14.85;11.25;;;;;;;-1.11;75.41;95689.97;4418805;32;20183;-61
2021/12/23 00:39:37;;;;;;;19.10;13.15;;;;;;;-1.15;74.94;95694.00;4403493;32;20221;-62
2021/12/23 00:42:07;;;;;;;13.57;11.15;;;;;;;-1.11;74.11;95697.78;4383454;32;20249;-61
2021/12/23 00:44:35;;;;;;;16.00;11.32;;;;;;;-1.21;75.17;95694.84;4388430;32;20184;-62
2021/12/23 00:47:01;;;;;;;15.18;10.90;;;;;;;-1.13;75.13;95692.78;4404097;32;20226;-61
2021/12/23 00:49:27;;;;;;;14.60;11.18;;;;;;;-0.94;74.14;95696.25;4405201;32;20196;-61
2021/12/23 00:51:53;;;;;;;13.00;11.33;;;;;;;-0.91;73.36;95693.22;4404085;32;20286;-61
2021/12/23 00:54:42;;;;;;;15.57;10.77;;;;;;;-0.84;73.26;95683.56;4413066;32;20197;-61
2021/12/23 00:57:10;;;;;;;16.95;12.15;;;;;;;-1.18;74.01;95684.81;4384903;32;20202;-61
2021/12/23 00:59:37;;;;;;;17.95;11.12;;;;;;;-1.28;74.57;95684.50;4418980;32;20226;-61
2021/12/23 01:02:08;;;;;;;16.40;11.55;;;;;;;-1.22;74.64;95688.03;4410404;32;20219;-61
2021/12/23 01:04:37;;;;;;;12.07;10.68;;;;;;;-1.33;74.50;95678.31;4381724;32;20253;-61
2021/12/23 01:07:04;;;;;;;14.43;10.55;;;;;;;-1.26;74.24;95671.25;4408030;32;20235;-61
2021/12/23 01:09:29;;;;;;;12.25;9.75;;;;;;;-1.55;75.09;95667.44;4412382;32;20195;-62
2021/12/23 01:11:57;;;;;;;13.50;10.63;;;;;;;-1.53;74.83;95663.63;4408097;32;20187;-61
2021/12/23 01:14:26;;;;;;;11.77;10.40;;;;;;;-1.56;75.04;95669.25;4406490;32;20258;-61
2021/12/23 01:17:23;;;;;;;13.95;10.57;;;;;;;-1.33;74.25;95654.91;4402574;32;20180;-61
2021/12/23 01:19:53;;;;;;;11.70;10.15;;;;;;;-1.23;73.55;95660.41;4393932;32;20210;-61
2021/12/23 01:22:20;;;;;;;13.93;9.82;;;;;;;-1.18;73.42;95668.38;4364343;32;20308;-61
2021/12/23 01:24:49;;;;;;;13.43;10.70;;;;;;;-1.37;73.27;95666.72;4394906;32;20184;-61
2021/12/23 01:27:16;;;;;;;13.48;10.52;;;;;;;-1.17;73.14;95672.59;4381178;32;20265;-61
2021/12/23 01:29:43;;;;;;;14.00;10.50;;;;;;;-1.35;73.67;95672.50;4391131;32;20180;-61
2021/12/23 01:32:09;;;;;;;12.73;9.70;;;;;;;-1.41;73.83;95669.75;4406620;32;20179;-61
2021/12/23 01:34:36;;;;;;;10.77;9.68;;;;;;;-1.25;73.64;95670.25;4404494;32;20188;-61
2021/12/23 01:37:25;;;;;;;10.52;9.25;;;;;;;-1.54;74.14;95672.44;4404133;32;20188;-61
2021/12/23 01:39:52;;;;;;;11.50;9.48;;;;;;;-1.46;74.32;95676.59;4403625;32;20318;-61
2021/12/23 01:42:18;;;;;;;12.80;9.98;;;;;;;-1.33;73.88;95673.09;4405064;32;20240;-61
2021/12/23 01:44:44;;;;;;;14.40;10.85;;;;;;;-1.15;73.18;95681.00;4411029;32;20298;-62
2021/12/23 01:47:11;;;;;;;15.67;10.87;;;;;;;-1.19;72.97;95672.00;4408969;32;20233;-61
2021/12/23 01:49:41;;;;;;;13.18;10.40;;;;;;;-1.39;73.82;95675.53;4388220;32;20247;-62
2021/12/23 01:52:08;;;;;;;13.30;9.73;;;;;;;-1.37;74.03;95669.31;4350464;32;20230;-62
2021/12/23 01:54:37;;;;;;;10.60;9.38;;;;;;;-1.26;73.37;95671.25;4399502;32;20196;-62
2021/12/23 01:57:08;;;;;;;12.18;10.95;;;;;;;-1.32;73.40;95682.50;4385727;32;20171;-62
2021/12/23 01:59:35;;;;;;;10.93;9.63;;;;;;;-1.14;73.22;95672.97;4409245;32;20184;-62
2021/12/23 02:02:04;;;;;;;13.50;10.50;;;;;;;-1.09;72.93;95672.34;4407073;32;20189;-64
2021/12/23 02:04:32;;;;;;;14.50;10.45;;;;;;;-1.17;73.09;95665.59;4409193;32;20175;-63
2021/12/23 02:06:59;;;;;;;12.73;10.18;;;;;;;-1.13;72.89;95664.16;4411511;32;20188;-62
2021/12/23 02:09:25;;;;;;;12.63;10.27;;;;;;;-1.04;72.71;95660.25;4400094;32;20184;-62
2021/12/23 02:11:53;;;;;;;15.27;11.15;;;;;;;-1.04;73.00;95664.69;4403888;32;20184;-62
2021/12/23 02:14:22;;;;;;;13.73;10.00;;;;;;;-1.08;72.83;95660.94;4413677;32;20267;-62
2021/12/23 02:16:49;;;;;;;16.35;10.93;;;;;;;-1.01;72.75;95648.63;4419749;32;20184;-61
2021/12/23 02:19:21;;;;;;;14.73;10.15;;;;;;;-1.18;73.27;95645.78;4370699;32;20259;-62
2021/12/23 02:21:48;;;;;;;16.87;10.95;;;;;;;-1.20;74.06;95645.19;4380638;32;20181;-62
2021/12/23 02:24:16;;;;;;;16.17;10.30;;;;;;;-1.11;73.57;95635.31;4407031;32;20188;-62
2021/12/23 02:26:43;;;;;;;11.20;8.70;;;;;;;-1.47;74.77;95628.97;4406585;32;20199;-62
2021/12/23 02:29:10;;;;;;;13.25;10.02;;;;;;;-1.23;74.54;95622.19;4413698;32;20240;-62
2021/12/23 02:31:45;;;;;;;11.95;10.10;;;;;;;-1.26;74.52;95619.22;4387130;32;20226;-62
2021/12/23 02:34:10;;;;;;;16.58;9.93;;;;;;;-1.60;75.65;95623.84;4400112;32;20214;-61
2021/12/23 02:36:37;;;;;;;14.20;10.40;;;;;;;-1.52;75.89;95620.22;4421318;32;20229;-62
2021/12/23 02:39:02;;;;;;;13.77;10.88;;;;;;;-1.50;76.26;95616.38;4398865;32;20188;-62
2021/12/23 02:41:29;;;;;;;14.70;10.73;;;;;;;-1.64;76.13;95612.25;4419375;32;20192;-62
2021/12/23 02:43:56;;;;;;;16.08;10.95;;;;;;;-1.55;76.36;95603.22;4389698;32;20212;-61
2021/12/23 02:46:24;;;;;;;13.30;10.25;;;;;;;-1.36;74.99;95595.47;4391962;32;21256;-62
2021/12/23 02:48:51;;;;;;;11.12;9.95;;;;;;;-1.36;74.69;95588.47;4381314;32;20314;-61
2021/12/23 02:51:18;;;;;;;14.07;9.50;;;;;;;-1.11;74.29;95585.88;4383799;32;20183;-62
2021/12/23 02:53:46;;;;;;;11.60;9.43;;;;;;;-1.04;73.58;95581.41;4403258;32;20195;-61
2021/12/23 02:56:16;;;;;;;13.07;9.27;;;;;;;-1.07;73.57;95581.84;4413776;32;20245;-61
2021/12/23 02:58:45;;;;;;;13.15;10.52;;;;;;;-1.08;74.31;95577.63;4408441;32;20195;-61
2021/12/23 03:01:19;;;;;;;11.30;9.27;;;;;;;-1.02;74.11;95576.75;4401482;32;20204;-61
2021/12/23 03:03:46;;;;;;;12.73;9.85;;;;;;;-1.09;74.49;95576.03;4405611;32;20237;-61
2021/12/23 03:06:12;;;;;;;14.30;10.75;;;;;;;-1.20;74.70;95576.72;4416579;32;20179;-61
2021/12/23 03:08:47;;;;;;;11.77;9.67;;;;;;;-1.05;74.44;95579.81;4409508;32;20203;-61
2021/12/23 03:11:26;;;;;;;11.77;9.82;;;;;;;-1.24;74.91;95583.34;4406964;32;20258;-61
2021/12/23 03:13:57;;;;;;;12.50;9.52;;;;;;;-1.02;74.30;95588.97;4384441;32;20215;-61
2021/12/23 03:16:44;;;;;;;12.37;9.48;;;;;;;-0.86;73.52;95593.66;4403095;32;21589;-61
2021/12/23 03:19:10;;;;;;;12.13;9.18;;;;;;;-1.20;73.41;95595.75;4388800;32;20180;-61
2021/12/23 03:21:38;;;;;;;13.07;10.20;;;;;;;-1.15;74.00;95598.50;4385191;32;20206;-61
2021/12/23 03:24:05;;;;;;;10.27;8.80;;;;;;;-1.26;74.53;95593.22;4369411;32;20228;-61
2021/12/23 03:26:39;;;;;;;10.70;9.57;;;;;;;-1.20;74.75;95587.94;4374480;32;20206;-62
2021/12/23 03:29:08;;;;;;;9.20;8.27;;;;;;;-1.17;74.63;95581.50;4416847;32;20223;-61
2021/12/23 03:31:41;;;;;;;10.63;8.80;;;;;;;-1.30;74.95;95581.63;4412637;32;20223;-62
2021/12/23 03:34:09;;;;;;;9.43;8.45;;;;;;;-1.25;75.05;95576.59;4371214;32;20199;-61
2021/12/23 03:36:37;;;;;;;11.98;8.88;;;;;;;-1.12;74.16;95579.06;4417578;32;20179;-61
2021/12/23 03:39:04;;;;;;;10.30;8.73;;;;;;;-1.07;73.67;95571.44;4380893;32;20281;-61
2021/12/23 03:41:31;;;;;;;13.18;9.70;;;;;;;-1.13;73.79;95565.25;4395704;32;20211;-61
2021/12/23 03:43:57;;;;;;;9.45;8.30;;;;;;;-1.20;74.32;95555.91;4399130;32;20235;-61
2021/12/23 03:46:23;;;;;;;9.73;8.70;;;;;;;-1.07;73.53;95553.22;4415268;32;20184;-61
2021/12/23 03:48:48;;;;;;;12.20;8.27;;;;;;;-1.21;73.38;95549.09;4416629;32;20195;-61
2021/12/23 03:51:15;;;;;;;10.83;8.37;;;;;;;-1.18;73.31;95551.28;4415141;32;20223;-61
2021/12/23 03:53:40;;;;;;;10.95;8.55;;;;;;;-1.07;72.80;95543.59;4411736;32;20218;-61
2021/12/23 03:56:05;;;;;;;10.37;8.67;;;;;;;-1.21;72.75;95544.69;4383315;32;20189;-61
2021/12/23 03:58:32;;;;;;;12.13;9.07;;;;;;;-1.09;72.57;95542.22;4384023;32;20195;-63
2021/12/23 04:00:59;;;;;;;9.27;8.25;;;;;;;-1.31;72.84;95538.41;4408723;32;20180;-61
2021/12/23 04:03:26;;;;;;;10.40;8.73;;;;;;;-1.28;73.32;95528.38;4416691;32;20188;-62
2021/12/23 04:05:53;;;;;;;9.60;8.25;;;;;;;-1.08;72.74;95528.19;4394987;32;20345;-61
2021/12/23 04:08:20;;;;;;;11.30;8.30;;;;;;;-1.01;72.40;95539.31;4420124;32;20179;-61
2021/12/23 04:10:47;;;;;;;11.98;8.90;;;;;;;-1.11;72.24;95539.03;4406766;32;20223;-61
2021/12/23 04:13:15;;;;;;;9.75;8.20;;;;;;;-1.28;72.97;95524.97;4407287;32;20194;-61
2021/12/23 04:15:42;;;;;;;11.52;9.00;;;;;;;-1.08;72.12;95515.97;4406980;32;20206;-61
2021/12/23 04:18:08;;;;;;;13.20;9.13;;;;;;;-1.05;71.66;95528.56;4419115;32;20251;-61
2021/12/23 04:20:46;;;;;;;9.68;7.60;;;;;;;-1.03;72.14;95533.53;4408429;32;20203;-62
2021/12/23 04:23:13;;;;;;;10.55;8.65;;;;;;;-1.07;72.24;95529.78;4412447;32;20183;-61
2021/12/23 04:25:39;;;;;;;10.00;8.68;;;;;;;-1.10;72.39;95525.00;4412160;32;20232;-61
2021/12/23 04:28:06;;;;;;;9.30;8.18;;;;;;;-1.21;72.67;95513.47;4410914;32;20184;-62
2021/12/23 04:30:33;;;;;;;10.90;8.23;;;;;;;-1.24;72.71;95513.09;4401242;32;20205;-62
2021/12/23 04:33:00;;;;;;;9.32;8.32;;;;;;;-1.30;73.49;95508.78;4402624;32;20187;-61
2021/12/23 04:35:26;;;;;;;9.35;8.30;;;;;;;-1.32;73.21;95506.38;4397866;32;20267;-61
2021/12/23 04:37:53;;;;;;;10.70;8.73;;;;;;;-1.33;73.06;95504.00;4420313;32;20183;-61
2021/12/23 04:40:20;;;;;;;9.10;7.95;;;;;;;-1.27;73.49;95492.75;4393011;32;20195;-62
2021/12/23 04:42:47;;;;;;;9.38;8.05;;;;;;;-1.29;73.16;95484.34;4374676;32;20184;-61
2021/12/23 04:45:14;;;;;;;12.07;8.77;;;;;;;-1.28;73.09;95484.16;4382174;32;20180;-62
2021/12/23 04:47:41;;;;;;;10.40;8.85;;;;;;;-1.31;73.08;95474.16;4396898;32;20175;-61
2021/12/23 04:50:11;;;;;;;10.23;8.60;;;;;;;-1.14;72.84;95477.78;4410746;32;20188;-62
2021/12/23 04:52:38;;;;;;;12.07;8.00;;;;;;;-0.97;72.17;95464.97;4397015;32;20196;-61
2021/12/23 04:55:08;;;;;;;9.52;8.32;;;;;;;-1.09;71.95;95462.31;4397412;32;20188;-61
2021/12/23 04:57:39;;;;;;;11.23;8.18;;;;;;;-1.15;72.32;95455.38;4411462;32;20176;-61
2021/12/23 05:00:13;;;;;;;9.23;8.30;;;;;;;-1.22;72.87;95449.44;4393058;32;20219;-61
2021/12/23 05:02:40;;;;;;;9.20;8.30;;;;;;;-1.33;73.46;95447.56;4366847;32;20184;-61
2021/12/23 05:05:07;;;;;;;10.80;8.07;;;;;;;-1.50;73.34;95449.94;4378128;32;20199;-61
2021/12/23 05:07:45;;;;;;;10.15;9.02;;;;;;;-1.25;73.33;95446.50;4398968;32;20184;-61
2021/12/23 05:10:12;;;;;;;13.30;8.88;;;;;;;-1.43;73.91;95448.03;4420038;32;20199;-61
2021/12/23 05:12:43;;;;;;;9.60;8.60;;;;;;;-1.65;74.94;95459.84;4392659;32;20191;-61
2021/12/23 05:15:18;;;;;;;8.70;7.80;;;;;;;-1.48;74.22;95466.13;4409361;32;20229;-61
2021/12/23 05:17:47;;;;;;;10.02;8.73;;;;;;;-1.37;73.36;95467.22;4385519;32;20179;-61
2021/12/23 05:20:25;;;;;;;11.95;8.52;;;;;;;-1.62;74.01;95459.44;4410999;32;20225;-61
2021/12/23 05:22:50;;;;;;;12.27;8.30;;;;;;;-1.35;73.86;95460.00;4417434;32;20255;-61
2021/12/23 05:25:17;;;;;;;10.43;8.80;;;;;;;-1.36;73.39;95460.19;4394646;32;20236;-61
2021/12/23 05:27:46;;;;;;;8.73;7.78;;;;;;;-1.32;73.59;95466.56;4379095;32;20192;-61
2021/12/23 05:30:16;;;;;;;9.40;8.35;;;;;;;-1.37;73.48;95472.41;4394603;32;20188;-61
2021/12/23 05:32:42;;;;;;;9.32;8.43;;;;;;;-1.51;72.96;95471.75;4385863;32;20188;-62
2021/12/23 05:35:20;;;;;;;11.10;8.30;;;;;;;-1.64;74.53;95471.84;4412127;32;20188;-62
2021/12/23 05:37:50;;;;;;;11.73;8.60;;;;;;;-1.74;74.24;95472.34;4407310;32;20215;-61
2021/12/23 05:40:23;;;;;;;21.67;8.93;;;;;;;-1.73;74.67;95478.34;4402872;32;20188;-62
2021/12/23 05:42:51;;;;;;;10.25;9.07;;;;;;;-1.42;73.68;95473.03;4404876;32;20244;-61
2021/12/23 05:45:18;;;;;;;11.38;9.40;;;;;;;-1.56;73.52;95469.00;4402807;32;20188;-62
2021/12/23 05:47:47;;;;;;;13.73;9.77;;;;;;;-1.46;74.45;95466.72;4386247;32;20180;-62
2021/12/23 05:50:13;;;;;;;11.15;9.48;;;;;;;-1.73;76.65;95473.13;4407729;32;20214;-62
2021/12/23 05:52:40;;;;;;;15.27;10.98;;;;;;;-2.02;78.29;95468.56;4388097;32;20229;-62
2021/12/23 05:55:09;;;;;;;11.98;10.70;;;;;;;-2.32;79.57;95473.56;4397255;32;20245;-61
2021/12/23 05:57:37;;;;;;;12.32;10.93;;;;;;;-1.84;78.24;95468.63;4399152;32;20231;-62
2021/12/23 06:00:08;;;;;;;13.35;11.43;;;;;;;-1.60;77.26;95467.81;4408075;32;20225;-62
2021/12/23 06:02:33;;;;;;;16.12;11.05;;;;;;;-1.75;76.72;95462.16;4398778;32;20207;-62
2021/12/23 06:05:00;;;;;;;13.07;10.77;;;;;;;-1.73;77.60;95462.75;4412226;32;20188;-61
2021/12/23 06:07:26;;;;;;;13.93;10.73;;;;;;;-1.65;76.83;95459.84;4404239;32;20259;-62
2021/12/23 06:09:54;;;;;;;15.35;10.70;;;;;;;-1.68;76.95;95455.09;4380404;32;20275;-62
2021/12/23 06:12:22;;;;;;;13.73;10.75;;;;;;;-1.60;77.18;95443.63;4413274;32;20233;-61
2021/12/23 06:14:49;;;;;;;12.63;9.90;;;;;;;-1.73;78.13;95442.75;4422503;32;20187;-61
2021/12/23 06:17:16;;;;;;;14.95;10.75;;;;;;;-1.53;77.16;95445.16;4427502;32;20215;-62
2021/12/23 06:19:42;;;;;;;13.68;10.88;;;;;;;-1.52;77.06;95457.16;4410386;32;20191;-62
2021/12/23 06:22:13;;;;;;;15.30;10.65;;;;;;;-1.52;76.83;95454.56;4413558;32;20190;-61
2021/12/23 06:24:47;;;;;;;11.75;10.27;;;;;;;-1.51;77.02;95455.34;4387432;32;20192;-62
2021/12/23 06:27:21;;;;;;;14.75;10.88;;;;;;;-1.39;75.90;95459.63;4406353;32;20225;-62
2021/12/23 06:29:47;;;;;;;18.58;11.25;;;;;;;-1.37;75.49;95462.00;4391052;32;20252;-62
2021/12/23 06:32:13;;;;;;;17.10;12.00;;;;;;;-1.49;76.11;95472.34;4391362;32;20188;-61
2021/12/23 06:34:39;;;;;;;12.47;10.60;;;;;;;-1.47;76.08;95461.72;4399956;32;20202;-61
2021/12/23 06:37:06;;;;;;;15.38;11.07;;;;;;;-1.60;76.89;95460.00;4376561;32;20342;-65
2021/12/23 06:39:35;;;;;;;16.05;11.00;;;;;;;-1.41;76.48;95464.22;4391277;32;20246;-61
2021/12/23 06:42:03;;;;;;;14.38;10.32;;;;;;;-1.46;76.29;95469.31;4400177;32;20180;-61
2021/12/23 06:44:29;;;;;;;14.90;10.60;;;;;;;-1.42;76.43;95465.25;4406339;32;20236;-61
2021/12/23 06:47:02;;;;;;;13.57;11.57;;;;;;;-1.54;76.80;95472.16;4404832;32;20192;-62
2021/12/23 06:49:31;;;;;;;18.25;11.30;;;;;;;-1.27;75.99;95469.34;4398917;32;20202;-61
2021/12/23 06:52:00;;;;;;;12.93;10.73;;;;;;;-1.51;76.17;95476.94;4372751;32;20241;-61
2021/12/23 06:54:25;;;;;;;12.77;10.55;;;;;;;-1.44;76.87;95466.47;4415459;32;20268;-61
2021/12/23 06:56:53;;;;;;;14.13;10.13;;;;;;;-1.30;76.26;95472.34;4411311;32;20180;-61
2021/12/23 06:59:20;;;;;;;12.63;10.52;;;;;;;-1.27;75.50;95477.12;4404484;32;20196;-61
2021/12/23 07:01:49;;;;;;;13.23;10.57;;;;;;;-1.36;75.27;95474.00;4401233;32;20230;-62
2021/12/23 07:04:18;;;;;;;13.07;10.13;;;;;;;-1.20;74.58;95465.63;4420929;32;20228;-61
2021/12/23 07:06:57;;;;;;;13.32;9.85;;;;;;;-1.35;74.77;95454.78;4407786;32;20179;-62
2021/12/23 07:09:23;;;;;;;14.98;10.48;;;;;;;-1.36;75.40;95458.41;4393487;32;20302;-61
2021/12/23 07:11:50;;;;;;;13.23;9.30;;;;;;;-1.41;74.61;95456.44;4382674;32;20188;-62
2021/12/23 07:14:16;;;;;;;13.50;10.05;;;;;;;-1.26;75.29;95463.12;4392580;32;20285;-60
2021/12/23 07:16:43;;;;;;;12.35;10.48;;;;;;;-1.20;74.63;95457.81;4409768;32;20184;-61
2021/12/23 07:19:10;;;;;;;12.70;10.35;;;;;;;-1.22;74.24;95461.66;4394806;32;20202;-62
2021/12/23 07:21:39;;;;;;;11.75;10.40;;;;;;;-1.39;75.14;95448.41;4417206;32;20204;-61
2021/12/23 07:24:08;;;;;;;20.27;11.02;;;;;;;-1.46;75.56;95460.72;4417257;32;20180;-62
2021/12/23 07:26:35;;;;;;;39.30;9.10;;;;;;;-1.73;76.81;95463.53;4404802;32;20176;-60
2021/12/23 07:29:05;;;;;;;30.12;16.73;;;;;;;1.60;95.22;95446.97;4349501;32;20230;-59
2021/12/23 07:31:32;;;;;;;12.47;11.17;;;;;;;5.16;100.00;95450.87;4399216;32;20202;-59
2021/12/23 07:33:57;;;;;;;23.63;10.63;;;;;;;5.62;85.34;95466.81;4402555;32;20379;-59
2021/12/23 07:36:27;;;;;;;12.93;9.20;;;;;;;6.99;71.17;95463.56;4423338;32;20342;-59
2021/12/23 07:38:55;;;;;;;13.30;9.60;;;;;;;8.27;61.86;95455.63;4399002;32;20259;-59
2021/12/23 07:41:27;;;;;;;12.33;8.47;;;;;;;8.57;57.10;95451.16;4398302;32;20351;-59
2021/12/23 07:44:04;;;;;;;15.80;9.43;;;;;;;9.14;67.28;95461.00;4412845;32;20282;-60
2021/12/23 07:46:35;;;;;;;11.90;9.40;;;;;;;9.45;54.08;95456.16;4410289;32;20317;-59
2021/12/23 07:49:03;;;;;;;12.67;9.50;;;;;;;8.20;48.82;95475.47;4379459;32;20280;-59
2021/12/23 07:51:30;;;;;;;13.60;9.83;;;;;;;8.30;50.65;95480.69;4408900;32;20285;-60
2021/12/23 07:53:55;;;;;;;10.43;9.33;;;;;;;8.95;49.03;95482.03;4369772;32;20405;-60
2021/12/23 07:56:27;;;;;;;10.30;9.03;;;;;;;9.11;47.59;95485.38;4386856;32;20180;-59
2021/12/23 07:58:54;;;;;;;10.07;9.07;;;;;;;9.29;47.77;95483.84;4404664;32;20298;-59
2021/12/23 08:01:21;;;;;;;9.83;8.80;;;;;;;9.42;46.23;95472.59;4388891;32;20303;-60
2021/12/23 08:03:48;;;;;;;10.07;9.07;;;;;;;8.90;45.91;95468.88;4401569;32;20310;-60
2021/12/23 08:06:16;;;;;;;10.03;8.77;;;;;;;8.80;47.13;95468.97;4404981;32;20264;-59
2021/12/23 08:08:43;;;;;;;10.13;8.97;;;;;;;9.09;47.03;95455.75;4410602;32;20283;-59
2021/12/23 08:11:10;;;;;;;11.17;10.07;;;;;;;9.10;46.26;95445.94;4398396;32;20298;-59
2021/12/23 08:13:36;;;;;;;10.10;9.10;;;;;;;8.69;44.92;95464.84;4393033;32;20420;-60
2021/12/23 08:16:07;;;;;;;14.00;10.50;;;;;;;9.10;45.76;95465.25;4405558;32;20287;-60
2021/12/23 08:18:33;;;;;;;14.23;11.07;;;;;;;8.56;45.44;95468.09;4361056;32;20291;-66
2021/12/23 08:21:01;;;;;;;11.50;10.37;;;;;;;5.12;49.22;95464.78;4394783;32;20290;-65
2021/12/23 08:23:31;;;;;;;11.67;10.57;;;;;;;3.83;53.29;95465.87;4401773;32;20358;-65
2021/12/23 08:26:04;;;;;;;12.30;10.90;;;;;;;3.03;55.99;95461.28;4388728;32;20416;-65
2021/12/23 08:28:31;;;;;;;11.80;10.47;;;;;;;2.76;57.86;95472.41;4400238;32;20279;-65
2021/12/23 08:31:00;;;;;;;14.00;10.30;;;;;;;1.58;62.02;95459.47;4382060;32;20291;-64
2021/12/23 08:33:26;;;;;;;12.80;10.83;;;;;;;1.40;63.75;95454.44;4411296;32;20363;-65
2021/12/23 08:35:52;;;;;;;15.93;11.60;;;;;;;0.30;66.87;95465.66;4396169;32;20342;-64
2021/12/23 08:38:17;;;;;;;13.47;12.17;;;;;;;-0.16;69.86;95461.94;4375168;32;20241;-64
2021/12/23 08:40:43;;;;;;;16.50;11.43;;;;;;;-0.70;71.99;95462.88;4385774;32;20227;-63
2021/12/23 08:43:12;;;;;;;14.15;10.98;;;;;;;-0.73;73.02;95460.72;4383629;32;20187;-64
2021/12/23 08:45:39;;;;;;;15.32;11.25;;;;;;;-0.86;73.43;95448.66;4407325;32;20263;-65
2021/12/23 08:48:05;;;;;;;13.52;11.05;;;;;;;-1.05;74.52;95454.88;4392144;32;20210;-64
2021/12/23 08:50:34;;;;;;;13.77;11.37;;;;;;;-0.96;74.44;95456.16;4396952;32;20183;-63
2021/12/23 08:53:02;;;;;;;15.65;11.65;;;;;;;-1.10;75.07;95452.94;4374161;32;20203;-64
2021/12/23 08:55:31;;;;;;;16.30;7.70;;;;;;;-1.04;74.65;95448.66;4378911;32;20196;-57
2021/12/23 08:58:04;;;;;;;15.52;11.43;;;;;;;2.56;99.07;95435.47;4412034;32;20303;-57
2021/12/23 09:00:41;;;;;;;13.40;9.60;;;;;;;4.89;95.88;95431.00;4383900;32;20292;-57
2021/12/23 09:03:09;;;;;;;12.40;9.37;;;;;;;6.28;84.55;95416.16;4402507;32;20271;-57
2021/12/23 09:05:37;;;;;;;14.57;10.35;;;;;;;8.36;73.13;95402.19;4401434;32;20138;-57
2021/12/23 09:08:05;;;;;;;10.13;7.93;;;;;;;6.99;61.99;95410.81;4413461;32;20235;-58
2021/12/23 09:10:31;;;;;;;13.00;8.97;;;;;;;9.15;61.60;95406.97;4391958;32;20259;-58
2021/12/23 09:12:58;;;;;;;12.47;8.97;;;;;;;10.46;50.62;95405.50;4367655;32;20358;-58
2021/12/23 09:15:24;;;;;;;10.67;8.97;;;;;;;11.32;45.30;95411.94;4391819;32;20364;-57
2021/12/23 09:17:50;;;;;;;10.30;9.27;;;;;;;11.42;44.90;95413.63;4380556;32;20196;-57
2021/12/23 09:20:19;;;;;;;10.47;9.43;;;;;;;11.55;44.32;95383.59;4413436;32;20234;-57
2021/12/23 09:22:46;;;;;;;10.33;8.93;;;;;;;11.48;43.09;95399.13;4402502;32;20191;-57
2021/12/23 09:25:23;;;;;;;11.10;9.80;;;;;;;11.39;42.79;95391.09;4397323;32;20260;-63
2021/12/23 09:33:11;;;;;;;15.83;8.27;;;;;;;3.86;53.23;95405.03;4413846;32;20285;-62
2021/12/23 09:35:39;;;;;;;9.30;8.00;;;;;;;2.77;58.50;95410.34;4403275;32;20286;-63
2021/12/23 09:38:07;;;;;;;11.63;9.10;;;;;;;2.30;60.19;95410.72;4414392;32;20305;-63
2021/12/23 09:40:34;;;;;;;10.67;8.03;;;;;;;2.78;59.78;95414.56;4402219;32;20370;-63
2021/12/23 09:43:07;;;;;;;7.73;7.03;;;;;;;2.45;60.72;95422.47;4358654;32;20280;-63
2021/12/23 09:45:36;;;;;;;7.83;7.10;;;;;;;2.30;60.48;95407.31;4385510;32;20288;-62
2021/12/23 09:48:26;;;;;;;7.93;7.23;;;;;;;2.08;61.24;95406.47;4389470;32;20302;-63
2021/12/23 09:50:57;;;;;;;12.00;7.13;;;;;;;2.43;60.62;95391.31;4362128;32;20325;-63
2021/12/23 09:53:26;;;;;;;8.17;7.03;;;;;;;2.64;59.98;95400.25;4389043;32;20284;-63
2021/12/23 09:55:53;;;;;;;8.10;7.40;;;;;;;2.79;59.19;95402.25;4345997;32;20291;-62
2021/12/23 09:58:20;;;;;;;8.30;7.50;;;;;;;2.72;59.04;95397.97;4379643;32;20276;-63
2021/12/23 10:00:47;;;;;;;8.30;6.93;;;;;;;2.51;59.43;95390.09;4365565;32;20280;-63
2021/12/23 10:03:17;;;;;;;8.13;6.77;;;;;;;2.61;58.83;95377.94;4371676;32;20323;-63
2021/12/23 10:05:47;;;;;;;7.73;6.93;;;;;;;2.59;59.18;95373.97;4376947;32;20360;-63
2021/12/23 10:08:16;;;;;;;8.57;7.27;;;;;;;2.40;59.82;95381.31;4358160;32;20364;-63
2021/12/23 10:11:10;;;;;;;7.53;6.77;;;;;;;2.67;59.84;95366.50;4372824;32;20314;-63
2021/12/23 10:31:06;;;;;;;6.10;5.50;;;;;;;3.20;58.69;95354.56;4378506;32;20286;-63
2021/12/23 10:39:25;;;;;;;7.97;6.53;;;;;;;3.44;58.43;95332.25;4382459;32;20358;-62
2021/12/23 10:42:08;;;;;;;6.73;5.57;;;;;;;3.56;58.09;95328.69;4373421;32;20303;-63
2021/12/23 10:44:33;;;;;;;7.67;6.53;;;;;;;3.50;58.80;95324.44;4395179;32;20337;-63
2021/12/23 10:47:12;;;;;;;7.37;5.83;;;;;;;3.63;58.61;95313.53;4417780;32;20275;-64
2021/12/23 10:49:43;;;;;;;8.23;6.20;;;;;;;3.91;57.46;95310.62;4415493;32;20168;-64
2021/12/23 10:52:17;;;;;;;15.27;6.30;;;;;;;3.99;58.01;95301.47;4393048;32;20264;-64
2021/12/23 11:00:35;;;;;;;6.80;5.93;;;;;;;4.08;58.79;95285.03;4410435;32;20290;-61
2021/12/23 11:03:33;;;;;;;7.43;6.43;;;;;;;3.83;59.87;95266.47;4416582;32;20267;-63
2021/12/23 11:06:20;;;;;;;8.13;6.83;;;;;;;4.13;59.08;95256.19;4409012;32;20279;-63
2021/12/23 11:37:13;;;;;;;6.27;5.20;;;;;;;4.43;60.71;95210.09;4386993;32;20324;-64
2021/12/23 11:40:24;;;;;;;8.33;5.37;;;;;;;4.66;60.05;95207.03;4351468;32;20268;-63
2021/12/23 11:45:34;;;;;;;7.50;5.00;;;;;;;4.52;59.86;95205.94;4400131;32;20318;-62
2021/12/23 11:48:05;;;;;;;9.83;6.00;;;;;;;4.85;60.18;95204.72;4402985;32;20276;-62
2021/12/23 11:50:42;;;;;;;6.60;5.97;;;;;;;4.87;59.57;95204.44;4387215;32;20303;-61
2021/12/23 11:53:27;;;;;;;7.33;5.23;;;;;;;4.79;59.54;95195.22;4370076;32;20317;-62
2021/12/23 11:56:16;;;;;;;8.60;6.10;;;;;;;4.96;59.34;95197.66;4410298;32;20284;-63
2021/12/23 11:58:45;;;;;;;12.37;5.83;;;;;;;4.99;59.16;95199.75;4397543;32;20294;-62
2021/12/23 12:01:32;;;;;;;9.00;6.27;;;;;;;5.16;58.79;95200.31;4333435;32;20291;-63
2021/12/23 12:04:27;;;;;;;14.93;6.77;;;;;;;4.98;58.63;95204.22;4398298;32;20298;-62
2021/12/23 12:07:20;;;;;;;14.17;6.90;;;;;;;5.17;58.58;95194.00;4418064;32;20282;-63
2021/12/23 12:10:17;;;;;;;9.30;6.37;;;;;;;5.33;59.17;95190.31;4403703;32;20294;-63
2021/12/23 12:13:02;;;;;;;15.07;6.87;;;;;;;5.36;58.99;95179.28;4397765;32;20287;-63
2021/12/23 12:15:48;;;;;;;11.60;6.83;;;;;;;5.58;59.36;95179.00;4359741;32;20428;-63
2021/12/23 12:18:26;;;;;;;7.90;6.53;;;;;;;5.12;60.83;95179.00;4414831;32;20298;-63
2021/12/23 12:20:59;;;;;;;10.47;6.73;;;;;;;5.23;60.71;95178.97;4401183;32;20275;-63
2021/12/23 12:23:44;;;;;;;11.43;6.70;;;;;;;5.38;59.96;95171.13;4401299;32;20272;-63
2021/12/23 12:27:00;;;;;;;8.53;6.17;;;;;;;5.57;60.34;95174.78;4412294;32;20262;-63
2021/12/23 12:29:46;;;;;;;10.90;6.83;;;;;;;5.75;59.35;95165.53;4414604;32;21163;-63
2021/12/23 12:32:35;;;;;;;7.77;6.03;;;;;;;5.76;59.32;95173.16;4380537;32;20280;-63
2021/12/23 12:35:11;;;;;;;15.33;6.43;;;;;;;5.90;58.60;95173.44;4408818;32;20302;-62
2021/12/23 12:37:42;;;;;;;15.03;6.90;;;;;;;5.48;60.25;95166.63;4406683;32;20467;-63
2021/12/23 12:41:14;;;;;;;10.53;6.90;;;;;;;5.94;59.23;95168.41;4382428;32;20290;-63
2021/12/23 12:44:33;;;;;;;8.93;7.40;;;;;;;5.81;59.99;95167.13;4285349;32;20297;-63
2021/12/23 12:47:24;;;;;;;16.60;6.67;;;;;;;6.13;59.36;95166.78;4340918;32;20291;-62
2021/12/23 12:50:06;;;;;;;9.27;6.77;;;;;;;5.99;59.72;95150.78;4316850;32;20353;-63
2021/12/23 12:52:37;;;;;;;11.83;8.10;;;;;;;5.73;60.49;95154.50;4351063;32;20280;-63
2021/12/23 12:55:14;;;;;;;7.50;6.53;;;;;;;6.26;59.39;95144.34;4336829;32;20285;-64